sensor_id;sensor_type;location;lat;lon;timestamp;pressure;altitude;pressure_sealevel;temperature;humidity
12759;BME280;20944;47.048;15.390;2023-09-19T00:00:44;97031.59;;;20.38;100.00
12759;BME280;20944;47.048;15.390;2023-09-19T00:03:14;96994.28;;;20.15;100.00
12759;BME280;20944;47.048;15.390;2023-09-19T00:05:43;97018.00;;;20.30;100.00
12759;BME280;20944;47.048;15.390;2023-09-19T00:08:13;97013.41;;;20.20;100.00
12759;BME280;20944;47.048;15.390;2023-09-19T00:10:43;97027.81;;;20.18;100.00
12759;BME280;20944;47.048;15.390;2023-09-19T00:13:12;97029.25;;;20.22;100.00
12759;BME280;20944;47.048;15.390;2023-09-19T00:15:44;97031.31;;;20.18;100.00
12759;BME280;20944;47.048;15.390;2023-09-19T00:18:17;97016.66;;;20.13;100.00
12759;BME280;20944;47.048;15.390;2023-09-19T00:20:48;97010.84;;;20.08;100.00
12759;BME280;20944;47.048;15.390;2023-09-19T00:23:19;97030.94;;;20.23;100.00
12759;BME280;20944;47.048;15.390;2023-09-19T00:25:49;97003.06;;;20.05;100.00
12759;BME280;20944;47.048;15.390;2023-09-19T00:28:18;97035.53;;;20.21;100.00
12759;BME280;20944;47.048;15.390;2023-09-19T00:30:47;97027.56;;;20.21;100.00
12759;BME280;20944;47.048;15.390;2023-09-19T00:33:17;97023.56;;;20.15;100.00
12759;BME280;20944;47.048;15.390;2023-09-19T00:35:49;97026.00;;;20.18;100.00
12759;BME280;20944;47.048;15.390;2023-09-19T00:38:18;97035.78;;;20.18;100.00
12759;BME280;20944;47.048;15.390;2023-09-19T00:40:51;97014.34;;;20.08;100.00
12759;BME280;20944;47.048;15.390;2023-09-19T00:43:19;97029.84;;;20.14;100.00
12759;BME280;20944;47.048;15.390;2023-09-19T00:45:51;97030.81;;;20.13;100.00
12759;BME280;20944;47.048;15.390;2023-09-19T00:48:20;97040.34;;;20.16;100.00
12759;BME280;20944;47.048;15.390;2023-09-19T00:50:50;97045.22;;;20.22;100.00
12759;BME280;20944;47.048;15.390;2023-09-19T00:53:21;97041.72;;;20.21;100.00
12759;BME280;20944;47.048;15.390;2023-09-19T00:55:53;97042.28;;;20.14;100.00
12759;BME280;20944;47.048;15.390;2023-09-19T00:58:23;96999.66;;;19.91;100.00
12759;BME280;20944;47.048;15.390;2023-09-19T01:00:52;97025.31;;;20.04;100.00
12759;BME280;20944;47.048;15.390;2023-09-19T01:03:22;97026.28;;;20.03;100.00
12759;BME280;20944;47.048;15.390;2023-09-19T01:05:51;97041.84;;;20.20;100.00
12759;BME280;20944;47.048;15.390;2023-09-19T01:08:19;97035.53;;;20.21;100.00
12759;BME280;20944;47.048;15.390;2023-09-19T01:10:52;97043.38;;;20.11;100.00
12759;BME280;20944;47.048;15.390;2023-09-19T01:13:28;97037.66;;;20.05;100.00
12759;BME280;20944;47.048;15.390;2023-09-19T01:16:03;96998.88;;;19.78;100.00
12759;BME280;20944;47.048;15.390;2023-09-19T01:18:40;97046.91;;;20.12;100.00
12759;BME280;20944;47.048;15.390;2023-09-19T01:21:15;96966.25;;;19.52;100.00
12759;BME280;20944;47.048;15.390;2023-09-19T01:24:12;97029.66;;;19.93;100.00
12759;BME280;20944;47.048;15.390;2023-09-19T01:27:00;97046.09;;;19.99;100.00
12759;BME280;20944;47.048;15.390;2023-09-19T01:29:38;97045.38;;;19.97;100.00
12759;BME280;20944;47.048;15.390;2023-09-19T01:32:09;97040.50;;;19.90;100.00
12759;BME280;20944;47.048;15.390;2023-09-19T01:34:44;97035.44;;;19.87;100.00
12759;BME280;20944;47.048;15.390;2023-09-19T01:37:14;97010.81;;;19.73;100.00
12759;BME280;20944;47.048;15.390;2023-09-19T01:39:50;97028.19;;;19.89;100.00
12759;BME280;20944;47.048;15.390;2023-09-19T01:42:26;97040.19;;;19.95;100.00
12759;BME280;20944;47.048;15.390;2023-09-19T01:45:02;97047.19;;;19.96;100.00
12759;BME280;20944;47.048;15.390;2023-09-19T01:47:35;97032.31;;;19.93;100.00
12759;BME280;20944;47.048;15.390;2023-09-19T01:50:13;97036.69;;;19.94;100.00
12759;BME280;20944;47.048;15.390;2023-09-19T01:52:48;97010.28;;;19.91;100.00
12759;BME280;20944;47.048;15.390;2023-09-19T01:55:17;97043.34;;;20.00;100.00
12759;BME280;20944;47.048;15.390;2023-09-19T01:57:51;97041.47;;;19.89;100.00
12759;BME280;20944;47.048;15.390;2023-09-19T02:00:23;97048.28;;;19.93;100.00
12759;BME280;20944;47.048;15.390;2023-09-19T02:02:56;97052.38;;;19.86;100.00
12759;BME280;20944;47.048;15.390;2023-09-19T02:05:26;97059.13;;;19.90;100.00
12759;BME280;20944;47.048;15.390;2023-09-19T02:07:55;97058.28;;;19.90;100.00
12759;BME280;20944;47.048;15.390;2023-09-19T02:10:25;97014.31;;;19.62;100.00
12759;BME280;20944;47.048;15.390;2023-09-19T02:12:53;97049.19;;;19.81;100.00
12759;BME280;20944;47.048;15.390;2023-09-19T02:15:23;97043.03;;;19.81;100.00
12759;BME280;20944;47.048;15.390;2023-09-19T02:17:51;97073.19;;;19.92;100.00
12759;BME280;20944;47.048;15.390;2023-09-19T02:20:21;97070.63;;;19.91;100.00
12759;BME280;20944;47.048;15.390;2023-09-19T02:22:49;97075.84;;;19.92;100.00
12759;BME280;20944;47.048;15.390;2023-09-19T02:25:18;97079.81;;;19.87;100.00
12759;BME280;20944;47.048;15.390;2023-09-19T02:27:47;97091.16;;;19.89;100.00
12759;BME280;20944;47.048;15.390;2023-09-19T02:30:15;97074.88;;;19.70;100.00
12759;BME280;20944;47.048;15.390;2023-09-19T02:32:47;97086.91;;;19.62;100.00
12759;BME280;20944;47.048;15.390;2023-09-19T02:35:16;97079.28;;;19.58;100.00
12759;BME280;20944;47.048;15.390;2023-09-19T02:37:48;97093.50;;;19.57;100.00
12759;BME280;20944;47.048;15.390;2023-09-19T02:40:16;97103.41;;;19.55;100.00
12759;BME280;20944;47.048;15.390;2023-09-19T02:42:52;97105.28;;;19.53;100.00
12759;BME280;20944;47.048;15.390;2023-09-19T02:45:20;97095.09;;;19.47;100.00
12759;BME280;20944;47.048;15.390;2023-09-19T02:47:49;97079.44;;;19.31;100.00
12759;BME280;20944;47.048;15.390;2023-09-19T02:50:17;97106.19;;;19.40;100.00
12759;BME280;20944;47.048;15.390;2023-09-19T02:52:48;97082.41;;;19.26;100.00
12759;BME280;20944;47.048;15.390;2023-09-19T02:55:17;97115.13;;;19.39;100.00
12759;BME280;20944;47.048;15.390;2023-09-19T02:57:47;97123.41;;;19.35;100.00
12759;BME280;20944;47.048;15.390;2023-09-19T03:00:16;97130.75;;;19.31;100.00
12759;BME280;20944;47.048;15.390;2023-09-19T03:02:48;97136.81;;;19.33;100.00
12759;BME280;20944;47.048;15.390;2023-09-19T03:05:17;97140.97;;;19.25;100.00
12759;BME280;20944;47.048;15.390;2023-09-19T03:07:48;97143.94;;;19.20;100.00
12759;BME280;20944;47.048;15.390;2023-09-19T03:10:17;97142.03;;;19.22;100.00
12759;BME280;20944;47.048;15.390;2023-09-19T03:12:46;97145.88;;;19.18;100.00
12759;BME280;20944;47.048;15.390;2023-09-19T03:15:15;97142.88;;;19.23;100.00
12759;BME280;20944;47.048;15.390;2023-09-19T03:17:44;97145.22;;;19.14;100.00
12759;BME280;20944;47.048;15.390;2023-09-19T03:20:13;97142.44;;;19.16;100.00
12759;BME280;20944;47.048;15.390;2023-09-19T03:22:44;97154.81;;;19.17;100.00
12759;BME280;20944;47.048;15.390;2023-09-19T03:25:14;97164.13;;;19.10;100.00
12759;BME280;20944;47.048;15.390;2023-09-19T03:27:44;97156.41;;;18.94;100.00
12759;BME280;20944;47.048;15.390;2023-09-19T03:30:13;97144.16;;;19.04;100.00
12759;BME280;20944;47.048;15.390;2023-09-19T03:32:44;97155.22;;;19.11;100.00
12759;BME280;20944;47.048;15.390;2023-09-19T03:35:14;97149.81;;;19.00;100.00
12759;BME280;20944;47.048;15.390;2023-09-19T03:37:43;97095.31;;;18.69;100.00
12759;BME280;20944;47.048;15.390;2023-09-19T03:40:12;97094.47;;;18.68;100.00
12759;BME280;20944;47.048;15.390;2023-09-19T03:42:42;97155.84;;;19.02;100.00
12759;BME280;20944;47.048;15.390;2023-09-19T03:45:10;97157.78;;;19.00;100.00
12759;BME280;20944;47.048;15.390;2023-09-19T03:47:40;97154.28;;;18.99;100.00
12759;BME280;20944;47.048;15.390;2023-09-19T03:50:09;97122.25;;;18.63;100.00
12759;BME280;20944;47.048;15.390;2023-09-19T03:52:38;97160.84;;;18.94;100.00
12759;BME280;20944;47.048;15.390;2023-09-19T03:55:07;97163.28;;;18.97;100.00
12759;BME280;20944;47.048;15.390;2023-09-19T03:57:36;97164.56;;;18.91;100.00
12759;BME280;20944;47.048;15.390;2023-09-19T04:00:07;97164.91;;;18.86;100.00
12759;BME280;20944;47.048;15.390;2023-09-19T04:02:39;97156.16;;;18.84;100.00
12759;BME280;20944;47.048;15.390;2023-09-19T04:05:08;97159.03;;;18.81;100.00
12759;BME280;20944;47.048;15.390;2023-09-19T04:07:37;97142.53;;;18.64;100.00
12759;BME280;20944;47.048;15.390;2023-09-19T04:10:06;97166.34;;;18.78;100.00
12759;BME280;20944;47.048;15.390;2023-09-19T04:12:40;97177.19;;;18.75;100.00
12759;BME280;20944;47.048;15.390;2023-09-19T04:15:10;97175.50;;;18.74;100.00
12759;BME280;20944;47.048;15.390;2023-09-19T04:17:40;97183.47;;;18.74;100.00
12759;BME280;20944;47.048;15.390;2023-09-19T04:20:09;97161.81;;;18.53;100.00
12759;BME280;20944;47.048;15.390;2023-09-19T04:22:39;97187.47;;;18.67;100.00
12759;BME280;20944;47.048;15.390;2023-09-19T04:25:07;97197.59;;;18.60;100.00
12759;BME280;20944;47.048;15.390;2023-09-19T04:27:35;97193.81;;;18.64;100.00
12759;BME280;20944;47.048;15.390;2023-09-19T04:30:06;97193.91;;;18.63;100.00
12759;BME280;20944;47.048;15.390;2023-09-19T04:32:39;97207.91;;;18.52;100.00
12759;BME280;20944;47.048;15.390;2023-09-19T04:35:08;97208.13;;;18.49;100.00
12759;BME280;20944;47.048;15.390;2023-09-19T04:37:38;97176.09;;;18.25;100.00
12759;BME280;20944;47.048;15.390;2023-09-19T04:40:08;97208.53;;;18.43;100.00
12759;BME280;20944;47.048;15.390;2023-09-19T04:42:41;97217.97;;;18.47;100.00
12759;BME280;20944;47.048;15.390;2023-09-19T04:45:10;97211.25;;;18.41;100.00
12759;BME280;20944;47.048;15.390;2023-09-19T04:47:39;97210.72;;;18.36;100.00
12759;BME280;20944;47.048;15.390;2023-09-19T04:50:10;97215.66;;;18.28;100.00
12759;BME280;20944;47.048;15.390;2023-09-19T04:52:41;97212.81;;;18.31;100.00
12759;BME280;20944;47.048;15.390;2023-09-19T04:55:12;97203.31;;;18.14;100.00
12759;BME280;20944;47.048;15.390;2023-09-19T04:57:43;97239.66;;;18.26;100.00
12759;BME280;20944;47.048;15.390;2023-09-19T05:00:14;97228.78;;;18.17;100.00
12759;BME280;20944;47.048;15.390;2023-09-19T05:02:46;97199.09;;;17.97;100.00
12759;BME280;20944;47.048;15.390;2023-09-19T05:05:14;97233.03;;;18.19;100.00
12759;BME280;20944;47.048;15.390;2023-09-19T05:07:44;97239.09;;;18.21;100.00
12759;BME280;20944;47.048;15.390;2023-09-19T05:10:12;97237.00;;;18.26;100.00
12759;BME280;20944;47.048;15.390;2023-09-19T05:12:41;97232.97;;;18.33;100.00
12759;BME280;20944;47.048;15.390;2023-09-19T05:15:12;97240.34;;;18.43;100.00
12759;BME280;20944;47.048;15.390;2023-09-19T05:17:41;97247.09;;;18.34;100.00
12759;BME280;20944;47.048;15.390;2023-09-19T05:20:11;97223.44;;;18.04;100.00
12759;BME280;20944;47.048;15.390;2023-09-19T05:22:42;97221.31;;;18.09;100.00
12759;BME280;20944;47.048;15.390;2023-09-19T05:25:11;97258.50;;;18.22;100.00
12759;BME280;20944;47.048;15.390;2023-09-19T05:27:43;97242.91;;;18.17;100.00
12759;BME280;20944;47.048;15.390;2023-09-19T05:30:12;97256.13;;;18.31;100.00
12759;BME280;20944;47.048;15.390;2023-09-19T05:32:42;97265.19;;;18.42;100.00
12759;BME280;20944;47.048;15.390;2023-09-19T05:35:12;97264.31;;;18.41;100.00
12759;BME280;20944;47.048;15.390;2023-09-19T05:37:40;97263.13;;;18.32;100.00
12759;BME280;20944;47.048;15.390;2023-09-19T05:40:09;97266.72;;;18.31;100.00
12759;BME280;20944;47.048;15.390;2023-09-19T05:42:39;97269.28;;;18.33;100.00
12759;BME280;20944;47.048;15.390;2023-09-19T05:45:08;97258.22;;;18.26;100.00
12759;BME280;20944;47.048;15.390;2023-09-19T05:47:39;97275.81;;;18.27;100.00
12759;BME280;20944;47.048;15.390;2023-09-19T05:50:14;97264.38;;;18.27;100.00
12759;BME280;20944;47.048;15.390;2023-09-19T05:52:43;97259.34;;;18.22;100.00
12759;BME280;20944;47.048;15.390;2023-09-19T05:55:12;97257.31;;;18.13;100.00
12759;BME280;20944;47.048;15.390;2023-09-19T05:57:41;97279.03;;;18.32;100.00
12759;BME280;20944;47.048;15.390;2023-09-19T06:00:11;97257.72;;;18.34;100.00
12759;BME280;20944;47.048;15.390;2023-09-19T06:02:40;97270.56;;;18.54;100.00
12759;BME280;20944;47.048;15.390;2023-09-19T06:05:11;97274.28;;;18.65;100.00
12759;BME280;20944;47.048;15.390;2023-09-19T06:07:41;97271.50;;;18.66;100.00
12759;BME280;20944;47.048;15.390;2023-09-19T06:10:09;97272.88;;;18.73;100.00
12759;BME280;20944;47.048;15.390;2023-09-19T06:12:38;97280.63;;;18.76;100.00
12759;BME280;20944;47.048;15.390;2023-09-19T06:15:07;97262.16;;;18.75;100.00
12759;BME280;20944;47.048;15.390;2023-09-19T06:17:39;97269.69;;;18.81;100.00
12759;BME280;20944;47.048;15.390;2023-09-19T06:20:08;97285.63;;;18.81;100.00
12759;BME280;20944;47.048;15.390;2023-09-19T06:22:41;97293.06;;;18.89;100.00
12759;BME280;20944;47.048;15.390;2023-09-19T06:25:10;97293.94;;;18.89;100.00
12759;BME280;20944;47.048;15.390;2023-09-19T06:27:42;97254.69;;;18.53;100.00
12759;BME280;20944;47.048;15.390;2023-09-19T06:30:11;97247.47;;;18.42;100.00
12759;BME280;20944;47.048;15.390;2023-09-19T06:32:40;97292.50;;;18.71;100.00
12759;BME280;20944;47.048;15.390;2023-09-19T06:35:12;97300.56;;;18.69;100.00
12759;BME280;20944;47.048;15.390;2023-09-19T06:37:42;97313.13;;;18.80;100.00
12759;BME280;20944;47.048;15.390;2023-09-19T06:40:12;97303.69;;;18.89;100.00
12759;BME280;20944;47.048;15.390;2023-09-19T06:42:42;97307.22;;;19.02;100.00
12759;BME280;20944;47.048;15.390;2023-09-19T06:45:11;97306.28;;;19.03;100.00
12759;BME280;20944;47.048;15.390;2023-09-19T06:47:40;97324.28;;;19.12;100.00
12759;BME280;20944;47.048;15.390;2023-09-19T06:50:09;97335.34;;;19.19;100.00
12759;BME280;20944;47.048;15.390;2023-09-19T06:52:41;97351.16;;;19.20;100.00
12759;BME280;20944;47.048;15.390;2023-09-19T06:55:10;97352.88;;;19.21;100.00
12759;BME280;20944;47.048;15.390;2023-09-19T06:57:40;97351.91;;;19.22;100.00
12759;BME280;20944;47.048;15.390;2023-09-19T07:00:11;97361.94;;;19.31;100.00
12759;BME280;20944;47.048;15.390;2023-09-19T07:02:45;97362.13;;;19.28;100.00
12759;BME280;20944;47.048;15.390;2023-09-19T07:05:22;97308.16;;;18.88;100.00
12759;BME280;20944;47.048;15.390;2023-09-19T07:07:52;97365.41;;;19.19;100.00
12759;BME280;20944;47.048;15.390;2023-09-19T07:10:21;97370.06;;;19.16;100.00
12759;BME280;20944;47.048;15.390;2023-09-19T07:12:55;97364.66;;;19.17;100.00
12759;BME280;20944;47.048;15.390;2023-09-19T07:15:24;97365.19;;;19.22;100.00
12759;BME280;20944;47.048;15.390;2023-09-19T07:17:53;97366.03;;;19.23;100.00
12759;BME280;20944;47.048;15.390;2023-09-19T07:20:24;97371.59;;;19.32;100.00
12759;BME280;20944;47.048;15.390;2023-09-19T07:22:55;97366.16;;;19.34;100.00
12759;BME280;20944;47.048;15.390;2023-09-19T07:25:27;97378.84;;;19.30;100.00
12759;BME280;20944;47.048;15.390;2023-09-19T07:27:56;97386.81;;;19.30;100.00
12759;BME280;20944;47.048;15.390;2023-09-19T07:30:28;97379.13;;;19.26;100.00
12759;BME280;20944;47.048;15.390;2023-09-19T07:32:57;97396.38;;;19.33;100.00
12759;BME280;20944;47.048;15.390;2023-09-19T07:35:25;97393.41;;;19.37;100.00
12759;BME280;20944;47.048;15.390;2023-09-19T07:37:55;97398.94;;;19.47;100.00
12759;BME280;20944;47.048;15.390;2023-09-19T07:40:25;97384.06;;;19.45;100.00
12759;BME280;20944;47.048;15.390;2023-09-19T07:42:54;97401.00;;;19.56;100.00
12759;BME280;20944;47.048;15.390;2023-09-19T07:45:22;97416.16;;;19.69;100.00
12759;BME280;20944;47.048;15.390;2023-09-19T07:47:52;97264.50;;;18.79;100.00
12759;BME280;20944;47.048;15.390;2023-09-19T07:50:20;97421.13;;;19.73;100.00
12759;BME280;20944;47.048;15.390;2023-09-19T07:52:50;97414.75;;;19.76;100.00
12759;BME280;20944;47.048;15.390;2023-09-19T07:55:21;97402.31;;;19.89;100.00
12759;BME280;20944;47.048;15.390;2023-09-19T07:57:50;97414.91;;;20.12;100.00
12759;BME280;20944;47.048;15.390;2023-09-19T08:00:19;97417.84;;;20.33;100.00
12759;BME280;20944;47.048;15.390;2023-09-19T08:02:48;97429.16;;;20.50;100.00
12759;BME280;20944;47.048;15.390;2023-09-19T08:05:27;97426.03;;;20.68;100.00
12759;BME280;20944;47.048;15.390;2023-09-19T08:07:55;97437.16;;;21.10;100.00
12759;BME280;20944;47.048;15.390;2023-09-19T08:10:27;97427.19;;;21.38;100.00
12759;BME280;20944;47.048;15.390;2023-09-19T08:13:02;97434.44;;;21.71;100.00
12759;BME280;20944;47.048;15.390;2023-09-19T08:15:31;97437.75;;;21.86;100.00
12759;BME280;20944;47.048;15.390;2023-09-19T08:17:59;97425.16;;;21.99;100.00
12759;BME280;20944;47.048;15.390;2023-09-19T08:20:28;97435.50;;;22.03;100.00
12759;BME280;20944;47.048;15.390;2023-09-19T08:22:58;97372.63;;;21.77;100.00
12759;BME280;20944;47.048;15.390;2023-09-19T08:25:27;97438.97;;;22.28;100.00
12759;BME280;20944;47.048;15.390;2023-09-19T08:27:56;97427.91;;;22.44;100.00
12759;BME280;20944;47.048;15.390;2023-09-19T08:30:26;97400.75;;;22.39;100.00
12759;BME280;20944;47.048;15.390;2023-09-19T08:32:57;97393.81;;;22.47;100.00
12759;BME280;20944;47.048;15.390;2023-09-19T08:35:26;97434.81;;;22.80;100.00
12759;BME280;20944;47.048;15.390;2023-09-19T08:37:54;97434.47;;;22.84;100.00
12759;BME280;20944;47.048;15.390;2023-09-19T08:40:23;97429.13;;;22.96;100.00
12759;BME280;20944;47.048;15.390;2023-09-19T08:42:59;97443.19;;;23.20;100.00
12759;BME280;20944;47.048;15.390;2023-09-19T08:45:27;97442.72;;;23.47;100.00
12759;BME280;20944;47.048;15.390;2023-09-19T08:48:03;97269.47;;;22.66;100.00
12759;BME280;20944;47.048;15.390;2023-09-19T08:50:41;97436.25;;;23.82;100.00
12759;BME280;20944;47.048;15.390;2023-09-19T08:53:11;97435.03;;;23.86;100.00
12759;BME280;20944;47.048;15.390;2023-09-19T08:55:43;97428.69;;;23.87;100.00
12759;BME280;20944;47.048;15.390;2023-09-19T08:58:19;97446.63;;;23.75;100.00
12759;BME280;20944;47.048;15.390;2023-09-19T09:00:53;97443.88;;;23.33;100.00
12759;BME280;20944;47.048;15.390;2023-09-19T09:03:22;97455.94;;;23.17;100.00
12759;BME280;20944;47.048;15.390;2023-09-19T09:05:51;97449.59;;;23.18;100.00
12759;BME280;20944;47.048;15.390;2023-09-19T09:08:20;97454.47;;;23.24;100.00
12759;BME280;20944;47.048;15.390;2023-09-19T09:10:50;97456.38;;;23.33;100.00
12759;BME280;20944;47.048;15.390;2023-09-19T09:13:20;97460.72;;;23.45;100.00
12759;BME280;20944;47.048;15.390;2023-09-19T09:15:51;97453.31;;;23.37;100.00
12759;BME280;20944;47.048;15.390;2023-09-19T09:18:21;97456.16;;;23.25;100.00
12759;BME280;20944;47.048;15.390;2023-09-19T09:20:51;97459.47;;;23.06;100.00
12759;BME280;20944;47.048;15.390;2023-09-19T09:23:20;97412.38;;;22.60;100.00
12759;BME280;20944;47.048;15.390;2023-09-19T09:25:49;97459.34;;;22.85;100.00
12759;BME280;20944;47.048;15.390;2023-09-19T09:28:24;97458.50;;;22.84;100.00
12759;BME280;20944;47.048;15.390;2023-09-19T09:30:54;97454.50;;;22.79;100.00
12759;BME280;20944;47.048;15.390;2023-09-19T09:33:23;97454.16;;;22.61;100.00
12759;BME280;20944;47.048;15.390;2023-09-19T09:35:53;97461.81;;;22.66;100.00
12759;BME280;20944;47.048;15.390;2023-09-19T09:38:25;97466.31;;;22.76;100.00
12759;BME280;20944;47.048;15.390;2023-09-19T09:40:55;97466.66;;;22.83;100.00
12759;BME280;20944;47.048;15.390;2023-09-19T09:43:31;97465.94;;;22.92;100.00
12759;BME280;20944;47.048;15.390;2023-09-19T09:46:14;97414.06;;;22.72;100.00
12759;BME280;20944;47.048;15.390;2023-09-19T09:49:11;97476.59;;;23.14;100.00
12759;BME280;20944;47.048;15.390;2023-09-19T09:51:48;97473.66;;;23.18;100.00
12759;BME280;20944;47.048;15.390;2023-09-19T09:54:25;97469.06;;;23.20;100.00
12759;BME280;20944;47.048;15.390;2023-09-19T09:57:04;97477.09;;;23.20;100.00
12759;BME280;20944;47.048;15.390;2023-09-19T09:59:50;97466.75;;;23.26;100.00
12759;BME280;20944;47.048;15.390;2023-09-19T10:02:26;97463.91;;;23.39;100.00
12759;BME280;20944;47.048;15.390;2023-09-19T10:05:11;97450.19;;;23.32;100.00
12759;BME280;20944;47.048;15.390;2023-09-19T10:07:49;97480.50;;;23.54;100.00
12759;BME280;20944;47.048;15.390;2023-09-19T10:10:34;97471.09;;;23.38;100.00
12759;BME280;20944;47.048;15.390;2023-09-19T10:13:12;97483.84;;;23.35;100.00
12759;BME280;20944;47.048;15.390;2023-09-19T10:15:47;97475.00;;;23.23;100.00
12759;BME280;20944;47.048;15.390;2023-09-19T10:18:38;97466.41;;;23.20;100.00
12759;BME280;20944;47.048;15.390;2023-09-19T10:21:09;97473.19;;;23.24;100.00
12759;BME280;20944;47.048;15.390;2023-09-19T10:23:40;97482.00;;;23.47;100.00
12759;BME280;20944;47.048;15.390;2023-09-19T10:26:16;97484.84;;;23.77;100.00
12759;BME280;20944;47.048;15.390;2023-09-19T10:28:46;97479.16;;;24.12;100.00
12759;BME280;20944;47.048;15.390;2023-09-19T10:31:20;97478.53;;;24.41;100.00
12759;BME280;20944;47.048;15.390;2023-09-19T10:33:51;97484.03;;;24.70;100.00
12759;BME280;20944;47.048;15.390;2023-09-19T10:36:24;97425.28;;;24.47;100.00
12759;BME280;20944;47.048;15.390;2023-09-19T10:38:55;97481.47;;;24.99;100.00
12759;BME280;20944;47.048;15.390;2023-09-19T10:41:24;97477.59;;;25.13;100.00
12759;BME280;20944;47.048;15.390;2023-09-19T10:43:54;97479.56;;;25.20;100.00
12759;BME280;20944;47.048;15.390;2023-09-19T10:46:24;97472.53;;;25.19;81.04
12759;BME280;20944;47.048;15.390;2023-09-19T10:48:53;97480.88;;;25.26;80.19
12759;BME280;20944;47.048;15.390;2023-09-19T10:51:24;97459.84;;;25.21;75.64
12759;BME280;20944;47.048;15.390;2023-09-19T10:53:59;97459.09;;;25.19;71.94
12759;BME280;20944;47.048;15.390;2023-09-19T10:56:33;97478.47;;;25.33;72.38
12759;BME280;20944;47.048;15.390;2023-09-19T10:59:08;97469.28;;;25.25;72.55
12759;BME280;20944;47.048;15.390;2023-09-19T11:01:44;97461.25;;;24.95;67.32
12759;BME280;20944;47.048;15.390;2023-09-19T11:04:22;97462.09;;;24.86;71.24
12759;BME280;20944;47.048;15.390;2023-09-19T11:07:02;97442.88;;;24.81;72.96
12759;BME280;20944;47.048;15.390;2023-09-19T11:09:47;97457.97;;;24.72;74.58
12759;BME280;20944;47.048;15.390;2023-09-19T11:12:48;97457.38;;;24.68;77.22
12759;BME280;20944;47.048;15.390;2023-09-19T11:18:56;97463.94;;;24.55;69.99
12759;BME280;20944;47.048;15.390;2023-09-19T11:21:52;97464.66;;;24.57;71.49
12759;BME280;20944;47.048;15.390;2023-09-19T11:24:28;97457.34;;;24.59;71.68
12759;BME280;20944;47.048;15.390;2023-09-19T11:27:14;97460.63;;;24.72;72.03
12759;BME280;20944;47.048;15.390;2023-09-19T11:29:45;97461.63;;;24.71;70.08
12759;BME280;20944;47.048;15.390;2023-09-19T11:32:14;97448.88;;;24.63;71.68
12759;BME280;20944;47.048;15.390;2023-09-19T11:34:47;97405.97;;;24.54;73.04
12759;BME280;20944;47.048;15.390;2023-09-19T11:40:38;97421.34;;;24.52;67.53
12759;BME280;20944;47.048;15.390;2023-09-19T11:43:28;97456.16;;;24.82;70.73
12759;BME280;20944;47.048;15.390;2023-09-19T11:46:08;97450.31;;;25.08;73.96
12759;BME280;20944;47.048;15.390;2023-09-19T11:48:39;97455.59;;;25.38;65.83
12759;BME280;20944;47.048;15.390;2023-09-19T11:51:14;97449.97;;;25.41;63.93
12759;BME280;20944;47.048;15.390;2023-09-19T11:53:54;97404.38;;;25.41;67.31
12759;BME280;20944;47.048;15.390;2023-09-19T11:56:24;97438.28;;;25.91;61.93
12759;BME280;20944;47.048;15.390;2023-09-19T11:58:55;97435.72;;;25.99;61.01
12759;BME280;20944;47.048;15.390;2023-09-19T12:01:29;97432.47;;;26.05;59.82
12759;BME280;20944;47.048;15.390;2023-09-19T12:04:00;97390.78;;;25.91;58.71
12759;BME280;20944;47.048;15.390;2023-09-19T12:06:33;97436.13;;;26.14;60.16
12759;BME280;20944;47.048;15.390;2023-09-19T12:09:03;97428.78;;;26.06;61.06
12759;BME280;20944;47.048;15.390;2023-09-19T12:11:41;97424.53;;;26.13;61.30
12759;BME280;20944;47.048;15.390;2023-09-19T12:14:11;97419.94;;;26.43;61.49
12759;BME280;20944;47.048;15.390;2023-09-19T12:16:40;97420.81;;;26.71;60.90
12759;BME280;20944;47.048;15.390;2023-09-19T12:19:22;97405.19;;;26.56;56.62
12759;BME280;20944;47.048;15.390;2023-09-19T12:21:56;97417.09;;;26.54;57.31
12759;BME280;20944;47.048;15.390;2023-09-19T12:24:27;97413.31;;;26.74;57.40
12759;BME280;20944;47.048;15.390;2023-09-19T12:27:01;97406.66;;;27.06;55.93
12759;BME280;20944;47.048;15.390;2023-09-19T12:29:32;97409.66;;;27.21;54.04
12759;BME280;20944;47.048;15.390;2023-09-19T12:32:10;97385.88;;;26.98;53.83
12759;BME280;20944;47.048;15.390;2023-09-19T12:34:38;97407.75;;;27.13;52.92
12759;BME280;20944;47.048;15.390;2023-09-19T12:37:12;97414.59;;;27.25;53.63
12759;BME280;20944;47.048;15.390;2023-09-19T12:39:43;97417.69;;;27.66;54.41
12759;BME280;20944;47.048;15.390;2023-09-19T12:42:17;97415.22;;;27.90;54.43
12759;BME280;20944;47.048;15.390;2023-09-19T12:44:47;97412.88;;;28.13;52.58
12759;BME280;20944;47.048;15.390;2023-09-19T12:47:18;97416.53;;;28.30;52.27
12759;BME280;20944;47.048;15.390;2023-09-19T12:50:08;97408.16;;;27.72;51.90
12759;BME280;20944;47.048;15.390;2023-09-19T12:52:44;97415.56;;;27.06;52.97
12759;BME280;20944;47.048;15.390;2023-09-19T12:55:24;97402.59;;;26.65;55.81
12759;BME280;20944;47.048;15.390;2023-09-19T12:58:02;97417.28;;;26.43;55.30
12759;BME280;20944;47.048;15.390;2023-09-19T13:00:37;97421.78;;;26.32;54.41
12759;BME280;20944;47.048;15.390;2023-09-19T13:03:16;97419.63;;;26.55;54.84
12759;BME280;20944;47.048;15.390;2023-09-19T13:05:50;97421.84;;;26.97;59.00
12759;BME280;20944;47.048;15.390;2023-09-19T13:08:24;97405.22;;;27.11;55.84
12759;BME280;20944;47.048;15.390;2023-09-19T13:11:10;97422.03;;;27.13;54.64
12759;BME280;20944;47.048;15.390;2023-09-19T13:13:42;97423.69;;;26.97;55.94